Indian Springs, Nevada Weather observations

Data are for observation ending at time listed.
 Day   Time    Ave.   Ave.  Ave.  Vector   Max.   Stn.    Total    Solar   Ave.  
  of    of     Air    Rel.  Wind   Wind    Wind   Baro.  Precip.   Rad.    Soil  
Year   Day     Temp.  Hum.  Speed  Dir.    Gust   Pres.                    Temp. 
2015   (PST)    F      %     mph   deg.    mph     mb.     in.     W/m2     F   
------------------------------------------------------------------------------
 109   21:00   74.0    10    2.0   207      5.2   900.6    0.00       0    79.5
 109   21:10   74.7    10    3.2   212      7.0   900.6    0.00       0    79.2
 109   21:20   74.6    10    4.0   222     10.2   900.5    0.00       0    79.0
 109   21:30   75.1    10    5.2   219      8.9   900.5    0.00       0    78.8
 109   21:40   73.3    10    3.0   259      6.0   900.6    0.00       0    78.6
 109   21:50   71.2    11    2.5   252      4.8   900.6    0.00       0    78.3
 109   22:00   71.0    11    2.1   280      5.6   900.6    0.00       0    78.2
 109   22:10   71.3    11    1.7   234      3.8   900.5    0.00       0    78.0
 109   22:20   68.2    12    1.4    83      3.1   900.5    0.00       0    77.8
 109   22:30   66.8    12    1.4   142      2.9   900.5    0.00       0    77.6
 109   22:40   66.6    13    1.1   145      2.6   900.4    0.00       0    77.4
 109   22:50   66.2    13    0.9   180      2.3   900.2    0.00       0    77.2
 109   23:00   66.9    13    1.2   165      2.6   900.2    0.00       0    77.0
 109   23:10   67.8    12    0.9   161      2.3   900.0    0.00       0    76.8
 109   23:20   66.5    13    0.8   339      4.4   900.2    0.00       0    76.6
 109   23:30   64.7    14    0.3   114      1.8   900.2    0.00       0    76.4
 109   23:40   64.0    14    1.2   266      3.3   900.0    0.00       0    76.2
 109   23:50   63.2    15    0.4    86      1.5   899.9    0.00       0    76.0
 110    0:00   61.8    16    0.2   176      1.2   899.8    0.00       0    75.8
 110    0:10   61.3    16    0.6   166      1.6   899.7    0.00       0    75.6
 110    0:20   62.1    15    0.9   242      1.9   899.6    0.00       0    75.4
 110    0:30   62.4    14    0.8   258      1.7   899.3    0.00       0    75.2
 110    0:40   62.0    14    1.5   305      2.9   899.4    0.00       0    75.0
 110    0:50   61.1    14    1.0   255      2.7   899.4    0.00       0    74.8
 110    1:00   60.4    16    1.2   331      2.1   899.3    0.00       0    74.6
 110    1:10   59.9    16    0.3   341      1.6   899.3    0.00       0    74.4
 110    1:20   58.2    18    0.4   161      1.5   899.3    0.00       0    74.3
 110    1:30   58.2    18    0.7   234      2.1   899.2    0.00       0    74.1
 110    1:40   58.3    16    1.3   223      2.9   899.1    0.00       0    73.9
 110    1:50   57.8    17    0.9   230      1.8   899.1    0.00       0    73.7
 110    2:00   57.9    16    2.7   228      4.8   899.1    0.00       0    73.5
 110    2:10   58.2    16    0.5   224      2.6   899.2    0.00       0    73.3
 110    2:20   57.8    18    0.1   255      1.2   899.0    0.00       0    73.1
 110    2:30   58.0    17    0.8   235      1.4   899.1    0.00       0    72.9
 110    2:40   57.8    17    0.7   220      2.1   899.2    0.00       0    72.8
 110    2:50   56.6    20    1.4   319      3.5   899.2    0.00       0    72.6
 110    3:00   56.9    17    2.1   245      3.7   899.1    0.00       0    72.4
 110    3:10   57.3    17    2.2   231      3.9   899.1    0.00       0    72.2
 110    3:20   58.1    16    1.9   235      4.0   899.2    0.00       0    72.0
 110    3:30   57.0    17    1.5   235      2.6   899.2    0.00       0    71.9
 110    3:40   56.8    17    1.4   231      2.5   899.2    0.00       0    71.7
 110    3:50   56.3    18    0.4   223      1.8   899.1    0.00       0    71.5
 110    4:00   55.5    19    0.4   212      1.1   899.2    0.00       0    71.4
 110    4:10   55.8    18    1.1   234      2.6   899.1    0.00       0    71.2
 110    4:20   56.1    18    1.4   232      2.8   899.1    0.00       0    71.1
 110    4:30   55.9    18    1.4   234      2.2   899.1    0.00       0    70.9
 110    4:40   55.9    18    1.7   240      2.9   899.2    0.00       0    70.8
 110    4:50   55.8    18    1.7   250      2.8   899.2    0.00       0    70.6
 110    5:00   54.7    20    0.6    83      1.9   899.2    0.00       1    70.4
 110    5:10   53.1    22    0.2   149      1.1   899.3    0.00       4    70.3
 110    5:20   52.5    23    0.2    24      1.2   899.2    0.00      11    70.2
 110    5:30   52.5    24    0.3   169      1.2   899.5    0.00      28    70.0
 110    5:40   53.8    22    0.3   214      1.2   899.3    0.00      57    69.9
 110    5:50   56.5    21    0.5   249      2.1   899.5    0.00      96    69.7
 110    6:00   57.9    21    0.8   249      2.8   899.7    0.00     140    69.5
 110    6:10   58.7    17    2.5   244      4.0   900.0    0.00     176    69.3
 110    6:20   60.9    16    1.8   248      3.2   900.4    0.00     214    69.2
 110    6:30   62.9    17    0.8    19      2.7   900.7    0.00     263    69.0
 110    6:40   62.5    17    0.7    19      2.0   901.0    0.00     300    68.9
 110    6:50   64.5    16    0.4   225      1.7   901.2    0.00     332    68.8
 110    7:00   65.2    15    1.0   225      2.0   901.5    0.00     374    68.8
 110    7:10   67.2    13    1.1   299      2.9   901.8    0.00     412    68.8
 110    7:20   67.8    14    1.3    20      3.3   902.1    0.00     462    68.8
 110    7:30   68.1    14    1.2    28      2.2   902.2    0.00     504    68.9
 110    7:40   70.4    13    0.3    10      1.6   902.3    0.00     536    69.0
 110    7:50   70.8    12    1.5    29      3.0   902.5    0.00     582    69.1
 110    8:00   70.3    12    1.5    23      3.9   902.7    0.00     616    69.3
 110    8:10   72.1    12    1.0     4      2.9   902.8    0.00     650    69.4
 110    8:20   72.8    12    1.3    25      3.2   903.1    0.00     688    69.7
 110    8:30   73.8    11    0.9   336      2.6   903.2    0.00     715    69.9
 110    8:40   74.9    11    1.1     3      2.8   903.3    0.00     753    70.2
 110    8:50   75.2    12    1.4    20      4.5   903.5    0.00     788    70.5
 110    9:00   75.7    11    1.5   358      3.6   903.7    0.00     814    70.8
 110    9:10   76.5    11    1.4    14      3.7   903.8    0.00     844    71.1
 110    9:20   77.7    10    1.0   216      2.8   903.9    0.00     864    71.5
 110    9:30   77.1    10    1.1   210      2.9   904.1    0.00     888    71.9
 110    9:40   78.0    10    1.7   326      5.5   904.1    0.00     917    72.3
 110    9:50   79.1     9    1.3    21      3.9   904.2    0.00     943    72.8
 110   10:00   79.5     9    1.5   301      3.9   904.2    0.00     961    73.2
 110   10:10   79.3     9    1.9   354      5.2   904.2    0.00     981    73.7
 110   10:20   78.9     9    1.9   211      3.5   904.2    0.00     993    74.2
 110   10:30   78.9     9    1.3   179      3.9   904.1    0.00    1016    74.7
 110   10:40   79.0     9    2.4    47      5.2   904.0    0.00    1049    75.3
 110   10:50   79.2     9    1.9    36      4.5   903.9    0.00     880    75.8
 110   11:00   78.5     9    1.6    12      5.0   903.7    0.00     794    76.4
 110   11:10   80.2     9    1.7   166      5.4   903.6    0.00    1128    76.9
 110   11:20   79.2     9    3.2   208      6.1   903.5    0.00    1108    77.4
 110   11:30   81.4     9    1.4   164      4.4   903.3    0.00    1095    77.9
 110   11:40   81.7     9    1.8   220      3.9   903.3    0.00    1080    78.4
 110   11:50   81.2     9    2.4   189      5.1   903.1    0.00    1071    78.9
 110   12:00   80.7     9    2.1    94      5.6   903.1    0.00    1076    79.4
 110   12:10   82.1     9    2.1    28      7.4   903.0    0.00    1078    79.9
 110   12:20   82.5     9    3.1    79      8.8   902.8    0.00    1086    80.4
 110   12:30   82.5     9    4.0    52      8.6   902.7    0.00    1098    81.0
 110   12:40   83.2     9    3.2    93      7.5   902.6    0.00    1098    81.5
 110   12:50   83.6     9    3.2    46      6.9   902.5    0.00     860    82.0
 110   13:00   81.7     9    2.7   101      8.6   902.3    0.00     220    82.5
 110   13:10   81.5     9    2.5   307      7.6   902.2    0.00     204    83.0
 110   13:20   80.7     9    1.9   214      4.7   901.8    0.00     226    83.5
 110   13:30   81.5     9    2.1   240      6.2   901.6    0.00     244    83.8
 110   13:40   81.6    10    2.4   305      8.1   901.4    0.00     263    84.1
 110   13:50   81.2    10    2.4   340      8.4   901.2    0.00     264    84.3
 110   14:00   81.1    10    4.5   296     12.9   901.1    0.00     295    84.4
 110   14:10   81.4     9    3.9   240      9.7   900.9    0.00     310    84.5
 110   14:20   81.4     9    2.8   241      8.9   900.8    0.00     271    84.5
 110   14:30   81.5     9    2.3    77      7.5   900.7    0.00     245    84.5
 110   14:40   80.6     9    3.1    98      8.5   900.6    0.00     241    84.5
 110   14:50   80.9    10    2.3   100      7.6   900.2    0.00     295    84.5
 110   15:00   81.6    10    1.6   108      5.0   900.1    0.00     438    84.4
 110   15:10   82.3     9    2.7    89      6.9   900.1    0.00     556    84.3
 110   15:20   82.2     9    3.1   104      6.8   900.2    0.00     304    84.2
 110   15:30   80.8    10    2.8    96      5.9   900.2    0.00     122    84.2
 110   15:40   80.3    10    1.5    96      4.9   900.1    0.00      98    84.1
 110   15:50   80.1    10    1.0    96      2.9   899.9    0.00      78    84.1
 110   16:00   79.7    10    1.1   130      3.7   899.7    0.00      73    84.1
 110   16:10   79.6    10    1.6   144      3.7   899.6    0.00      77    84.0
 110   16:20   79.3    11    1.1   108      2.4   899.4    0.00      77    83.9
 110   16:30   78.9    11    0.8   106      2.5   899.2    0.00      75    83.8
 110   16:40   78.7    11    0.4   110      1.3   899.1    0.00      82    83.6
 110   16:50   78.3    12    0.2    96      1.5   898.9    0.00     111    83.5
 110   17:00   78.4    12    0.5   103      1.8   898.7    0.00     107    83.3
 110   17:10   78.8    12    0.8   105      2.3   898.5    0.00      70    83.1
 110   17:20   78.7    12    0.6   111      1.9   898.5    0.00      70    82.9
 110   17:30   78.7    11    1.9   187      4.3   898.6    0.00      58    82.7
 110   17:40   78.8    11    4.8   200      9.2   898.7    0.00      52    82.5
 110   17:50   78.3    12    6.6   187     12.5   898.7    0.00      41    82.3
 110   18:00   77.8    12    6.2   194     11.1   898.7    0.00      32    82.1
 110   18:10   77.9    11    7.3   210     13.2   898.6    0.00      19    81.9
 110   18:20   77.9    11    6.8   215     11.6   898.7    0.00      11    81.7
 110   18:30   77.8    11    6.7   216     10.3   898.7    0.00       5    81.6
 110   18:40   77.4    11    4.1   205      8.8   898.7    0.00       0    81.4
 110   18:50   77.0    11    4.0   208      8.8   898.7    0.00       0    81.2
 110   19:00   76.7    10    4.3   219      6.4   898.8    0.00       0    81.0
 110   19:10   76.4    10    3.8   222      7.3   898.8    0.00       0    80.8
 110   19:20   75.5    11    3.4   223      5.6   898.8    0.00       0    80.6
 110   19:30   75.8    11    3.8   214      6.4   898.8    0.00       0    80.4
 110   19:40   75.6    10    3.7   222      5.7   898.7    0.00       0    80.2
 110   19:50   75.2    10    5.5   220      8.8   898.8    0.00       0    80.0
 110   20:00   75.4    10    5.4   222     10.5   899.0    0.00       0    79.7
 110   20:10   75.6    10    5.4   215     10.0   899.0    0.00       0    79.5
 110   20:20   75.4    10    3.9   216      6.8   899.1    0.00       0    79.3
 110   20:30   75.0    10    3.9   223      7.5   899.0    0.00       0    79.1
 110   20:40   74.8    10    2.8   202      6.0   899.1    0.00       0    78.9
 110   20:50   70.8    12    3.1    79      7.4   899.2    0.00       0    78.8

Return to Indian Springs, Nevada graphs page.


Western Regional Climate Center,wrcc@dri.edu